Time;durP1;ratioP1;P1;durP2;ratioP2;P2;SDS_P1;SDS_P2;PMS_P1;PMS_P2;Temp;Humidity;BMP_temperature;BMP_pressure;BME280_temperature;BME280_humidity;BME280_pressure;Samples;Min_cycle;Max_cycle;Signal;HPM_P1;HPM_P2
2021/12/02 00:01:03;;;;;;;0.80;0.50;;;;;;;6.48;71.21;94565.09;5107865;28;20414;-76
2021/12/02 00:03:30;;;;;;;1.38;0.80;;;;;;;6.49;71.12;94555.84;5108235;28;20055;-76
2021/12/02 00:05:56;;;;;;;0.73;0.68;;;;;;;6.43;71.50;94567.22;5108156;28;20055;-76
2021/12/02 00:08:23;;;;;;;1.30;0.70;;;;;;;6.36;71.63;94566.97;5107589;28;20040;-76
2021/12/02 00:10:49;;;;;;;3.38;0.75;;;;;;;6.30;71.96;94568.31;5107884;28;20055;-77
2021/12/02 00:13:22;;;;;;;1.10;0.60;;;;;;;6.24;72.07;94565.03;5107614;28;20048;-75
2021/12/02 00:15:53;;;;;;;2.10;0.60;;;;;;;6.19;72.47;94573.34;5108204;28;20047;-76
2021/12/02 00:21:18;;;;;;;1.13;0.70;;;;;;;6.13;72.73;94571.97;5107486;28;20128;-75
2021/12/02 00:23:51;;;;;;;1.58;0.80;;;;;;;6.11;72.75;94566.09;5107826;28;20422;-76
2021/12/02 00:26:19;;;;;;;1.58;0.77;;;;;;;6.09;72.92;94568.34;5107307;28;20043;-75
2021/12/02 00:28:51;;;;;;;1.15;0.70;;;;;;;6.08;72.95;94577.59;5108061;28;20043;-81
2021/12/02 00:31:20;;;;;;;1.00;0.57;;;;;;;6.07;73.35;94570.63;5107463;28;20047;-77
2021/12/02 00:33:49;;;;;;;1.65;0.75;;;;;;;6.04;73.03;94569.34;5108006;28;20097;-77
2021/12/02 00:36:17;;;;;;;1.13;0.82;;;;;;;6.01;73.53;94567.34;5107007;28;20522;-76
2021/12/02 00:38:46;;;;;;;1.05;0.68;;;;;;;6.01;73.23;94562.72;5107719;28;20400;-76
2021/12/02 00:41:14;;;;;;;2.25;0.80;;;;;;;6.02;73.21;94563.50;5107416;28;20653;-75
2021/12/02 00:43:41;;;;;;;0.95;0.60;;;;;;;6.01;73.31;94562.72;5107928;28;20526;-75
2021/12/02 00:46:12;;;;;;;1.05;0.52;;;;;;;6.01;73.06;94562.72;5107301;28;20161;-74
2021/12/02 00:48:40;;;;;;;1.48;0.50;;;;;;;6.03;73.27;94570.47;5107521;28;20075;-75
2021/12/02 00:51:07;;;;;;;1.35;0.60;;;;;;;6.00;72.94;94565.72;5107127;28;20081;-76
2021/12/02 00:53:35;;;;;;;0.90;0.60;;;;;;;5.98;73.18;94565.28;5107700;28;20514;-75
2021/12/02 00:56:03;;;;;;;0.98;0.60;;;;;;;5.94;73.23;94567.06;5110923;28;20082;-72
2021/12/02 00:58:31;;;;;;;0.80;0.50;;;;;;;5.92;73.77;94566.63;5111407;28;20075;-76
2021/12/02 01:00:58;;;;;;;0.82;0.70;;;;;;;5.91;73.94;94575.81;5111778;27;20128;-74
2021/12/02 01:03:30;;;;;;;1.17;0.60;;;;;;;5.89;74.15;94569.94;5110870;28;20047;-76
2021/12/02 01:05:58;;;;;;;1.65;0.80;;;;;;;5.86;74.35;94567.91;5111371;28;20126;-77
2021/12/02 01:08:26;;;;;;;0.77;0.60;;;;;;;5.86;74.36;94576.00;5110343;28;20043;-75
2021/12/02 01:10:53;;;;;;;1.23;0.80;;;;;;;5.83;74.23;94582.84;5111046;28;20421;-76
2021/12/02 01:13:20;;;;;;;1.02;0.70;;;;;;;5.82;74.54;94575.88;5110115;28;20046;-76
2021/12/02 01:15:46;;;;;;;0.90;0.70;;;;;;;5.85;74.21;94574.44;5111364;28;20066;-75
2021/12/02 01:18:13;;;;;;;1.00;0.80;;;;;;;5.84;74.36;94568.22;5110458;28;20044;-75
2021/12/02 01:20:44;;;;;;;0.85;0.70;;;;;;;5.84;74.24;94570.94;5110848;28;20452;-76
2021/12/02 01:23:11;;;;;;;1.17;0.70;;;;;;;5.86;74.29;94568.69;5110853;28;20075;-75
2021/12/02 01:25:38;;;;;;;0.60;0.50;;;;;;;5.86;73.90;94574.09;5110857;27;20052;-75
2021/12/02 01:28:05;;;;;;;1.30;0.70;;;;;;;5.84;74.02;94579.03;5110644;27;20051;-76
2021/12/02 01:30:33;;;;;;;1.77;0.88;;;;;;;5.87;73.71;94567.56;5110711;27;20108;-75
2021/12/02 01:33:03;;;;;;;0.60;0.60;;;;;;;5.86;73.90;94571.41;5111030;28;20050;-75
2021/12/02 01:35:32;;;;;;;1.05;0.65;;;;;;;5.87;73.89;94570.28;5110750;28;20052;-75
2021/12/02 01:38:00;;;;;;;1.35;0.90;;;;;;;5.90;73.50;94572.31;5110893;28;20047;-75
2021/12/02 01:40:28;;;;;;;1.20;0.68;;;;;;;5.94;73.62;94575.16;5110155;28;20059;-75
2021/12/02 01:42:57;;;;;;;1.05;0.60;;;;;;;5.92;73.60;94564.69;5110578;28;20044;-75
2021/12/02 01:45:26;;;;;;;0.70;0.60;;;;;;;5.95;73.65;94580.25;5110104;28;20050;-75
2021/12/02 01:47:55;;;;;;;0.95;0.55;;;;;;;5.90;73.45;94575.03;5110666;27;20653;-75
2021/12/02 01:50:23;;;;;;;1.20;0.70;;;;;;;5.89;73.33;94570.72;5110169;27;20047;-76
2021/12/02 01:52:55;;;;;;;0.80;0.70;;;;;;;5.90;73.44;94571.50;5110413;28;20581;-75
2021/12/02 01:55:25;;;;;;;0.90;0.70;;;;;;;5.85;73.61;94569.81;5110223;28;20051;-75
2021/12/02 01:57:59;;;;;;;1.83;0.50;;;;;;;5.81;73.38;94579.72;5110228;28;20728;-75
2021/12/02 02:00:28;;;;;;;1.42;0.60;;;;;;;5.81;73.23;94574.31;5109906;28;20129;-75
2021/12/02 02:02:55;;;;;;;0.77;0.75;;;;;;;5.87;73.34;94575.69;5110477;28;20062;-75
2021/12/02 02:05:22;;;;;;;0.80;0.50;;;;;;;5.86;73.43;94578.72;5109744;28;20532;-77
2021/12/02 02:08:00;;;;;;;1.73;0.60;;;;;;;5.91;72.98;94573.94;5108355;28;20048;-77
2021/12/02 02:10:30;;;;;;;1.05;0.60;;;;;;;5.92;72.78;94572.81;5109750;27;20052;-78
2021/12/02 02:13:01;;;;;;;1.65;0.68;;;;;;;5.97;72.57;94567.19;5110013;27;20094;-77
2021/12/02 02:15:28;;;;;;;2.28;0.50;;;;;;;5.99;72.37;94581.16;5109704;27;20054;-78
2021/12/02 02:17:57;;;;;;;0.65;0.57;;;;;;;6.00;71.79;94584.63;5109884;28;20044;-78
2021/12/02 02:20:36;;;;;;;0.70;0.50;;;;;;;5.96;71.61;94579.13;5108326;28;20047;-78
2021/12/02 02:23:04;;;;;;;0.90;0.50;;;;;;;5.93;71.95;94585.19;5109187;27;20130;-76
2021/12/02 02:25:31;;;;;;;1.05;0.50;;;;;;;5.94;71.54;94589.47;5109056;28;20048;-77
2021/12/02 02:27:57;;;;;;;1.00;0.55;;;;;;;5.94;71.75;94584.06;5109117;28;20051;-77
2021/12/02 02:30:24;;;;;;;0.95;0.60;;;;;;;5.96;71.69;94581.84;5108839;28;20051;-78
2021/12/02 02:32:50;;;;;;;2.38;0.50;;;;;;;5.99;71.27;94569.56;5109128;28;20406;-77
2021/12/02 02:35:17;;;;;;;3.47;0.63;;;;;;;5.97;71.48;94586.09;5109003;28;20049;-77
2021/12/02 02:37:45;;;;;;;2.38;0.55;;;;;;;5.94;71.64;94594.84;5107899;28;20704;-77
2021/12/02 02:40:14;;;;;;;1.83;0.50;;;;;;;5.91;72.06;94581.22;5109174;27;20058;-78
2021/12/02 02:42:41;;;;;;;1.08;0.50;;;;;;;5.89;72.10;94586.94;5108345;28;20043;-77
2021/12/02 02:45:09;;;;;;;3.22;0.65;;;;;;;5.92;72.21;94583.59;5108865;28;20048;-76
2021/12/02 02:47:35;;;;;;;1.58;0.70;;;;;;;5.94;72.52;94584.06;5108657;28;20051;-77
2021/12/02 02:50:02;;;;;;;1.98;0.60;;;;;;;5.91;72.72;94587.44;5108538;27;20051;-76
2021/12/02 02:52:30;;;;;;;0.73;0.50;;;;;;;5.85;73.57;94590.66;5108539;28;20051;-78
2021/12/02 02:54:58;;;;;;;0.55;0.40;;;;;;;5.77;74.25;94592.28;5108774;28;20655;-78
2021/12/02 02:57:27;;;;;;;1.50;0.50;;;;;;;5.73;74.74;94594.84;5107763;27;20048;-78
2021/12/02 03:00:05;;;;;;;1.52;0.45;;;;;;;5.70;74.94;94594.72;5108324;28;20734;-78
2021/12/02 03:02:37;;;;;;;1.70;0.60;;;;;;;5.68;75.64;94602.34;5109178;28;20051;-77
2021/12/02 03:05:16;;;;;;;0.73;0.50;;;;;;;5.64;76.19;94606.84;5107917;28;20043;-77
2021/12/02 03:07:46;;;;;;;1.33;0.47;;;;;;;5.59;76.10;94604.34;5108710;27;20063;-77
2021/12/02 03:10:18;;;;;;;1.02;0.50;;;;;;;5.60;76.61;94611.31;5108469;28;20073;-75
2021/12/02 03:12:54;;;;;;;1.02;0.50;;;;;;;5.57;76.95;94606.56;5095517;28;20075;-75
2021/12/02 03:18:06;;;;;;;0.70;0.50;;;;;;;5.59;77.53;94610.53;5107528;28;20107;-75
2021/12/02 03:20:33;;;;;;;0.95;0.43;;;;;;;5.57;78.12;94620.84;5108751;28;20062;-75
2021/12/02 03:22:59;;;;;;;1.35;0.50;;;;;;;5.48;78.79;94615.53;5109295;28;20415;-75
2021/12/02 03:25:27;;;;;;;0.50;0.47;;;;;;;5.41;79.88;94631.44;5108514;28;20052;-75
2021/12/02 03:27:54;;;;;;;0.70;0.40;;;;;;;5.34;80.28;94631.19;5108310;28;20430;-77
2021/12/02 03:30:20;;;;;;;0.47;0.40;;;;;;;5.28;80.87;94629.78;5108244;28;20047;-77
2021/12/02 03:32:47;;;;;;;0.52;0.40;;;;;;;5.18;81.29;94622.06;5108355;28;20057;-77
2021/12/02 03:35:13;;;;;;;1.75;0.50;;;;;;;5.09;82.26;94619.41;5091495;28;20533;-76
2021/12/02 03:37:40;;;;;;;0.82;0.50;;;;;;;4.97;82.50;94620.09;5108622;28;20043;-76
2021/12/02 03:40:08;;;;;;;0.38;0.32;;;;;;;4.92;82.54;94622.19;5108241;28;20065;-75
2021/12/02 03:42:36;;;;;;;0.30;0.30;;;;;;;4.83;83.01;94616.81;5112888;27;20051;-77
2021/12/02 03:45:03;;;;;;;1.08;0.50;;;;;;;4.83;82.55;94616.81;5107834;28;20048;-77
2021/12/02 03:47:29;;;;;;;0.20;0.20;;;;;;;4.76;82.30;94621.94;5107885;28;20054;-76
2021/12/02 03:49:56;;;;;;;0.30;0.30;;;;;;;4.70;82.80;94613.22;5108426;28;20058;-77
2021/12/02 03:52:22;;;;;;;0.25;0.25;;;;;;;4.69;83.11;94616.22;5107886;28;20052;-76
2021/12/02 03:54:49;;;;;;;0.20;0.20;;;;;;;4.60;82.99;94624.38;5108227;28;20054;-76
2021/12/02 03:57:15;;;;;;;0.45;0.30;;;;;;;4.58;83.08;94617.69;5107339;28;20043;-76
2021/12/02 03:59:43;;;;;;;0.28;0.28;;;;;;;4.56;83.24;94611.84;5108149;28;20047;-76
2021/12/02 04:02:10;;;;;;;0.55;0.30;;;;;;;4.53;82.71;94617.88;5107582;28;20494;-76
2021/12/02 04:04:36;;;;;;;0.28;0.20;;;;;;;4.51;82.31;94615.50;5108454;28;20047;-75
2021/12/02 04:07:03;;;;;;;0.57;0.20;;;;;;;4.48;82.30;94620.75;5107604;28;20529;-75
2021/12/02 04:09:36;;;;;;;0.20;0.20;;;;;;;4.48;82.41;94620.75;5108068;28;20050;-76
2021/12/02 04:12:06;;;;;;;1.38;0.10;;;;;;;4.48;82.04;94615.34;5107033;28;20113;-75
2021/12/02 04:14:36;;;;;;;0.35;0.30;;;;;;;4.42;81.93;94620.91;5107960;28;20062;-77
2021/12/02 04:17:07;;;;;;;2.15;0.50;;;;;;;4.35;81.82;94619.81;5107561;28;20051;-77
2021/12/02 04:19:34;;;;;;;0.45;0.30;;;;;;;4.29;81.79;94619.22;5107999;28;20430;-76
2021/12/02 04:22:01;;;;;;;1.35;0.30;;;;;;;4.24;81.47;94626.66;5107457;28;20047;-76
2021/12/02 04:24:28;;;;;;;2.10;0.45;;;;;;;4.20;81.59;94621.13;5120018;28;20047;-76
2021/12/02 04:26:54;;;;;;;0.65;0.30;;;;;;;4.15;81.20;94619.38;5112047;28;20062;-76
2021/12/02 04:29:23;;;;;;;2.30;0.45;;;;;;;4.13;81.69;94624.31;5107736;28;20047;-76
2021/12/02 04:31:49;;;;;;;1.52;0.40;;;;;;;4.15;81.62;94618.59;5112094;28;20128;-76
2021/12/02 04:34:18;;;;;;;0.55;0.40;;;;;;;4.11;81.96;94617.63;5111358;28;20051;-76
2021/12/02 04:36:45;;;;;;;1.33;0.75;;;;;;;4.09;81.75;94617.19;5111746;28;20525;-76
2021/12/02 04:39:11;;;;;;;0.60;0.30;;;;;;;4.08;81.79;94624.47;5110952;28;20055;-76
2021/12/02 04:41:38;;;;;;;1.35;0.40;;;;;;;4.09;81.96;94627.94;5111662;28;20052;-75
2021/12/02 04:44:05;;;;;;;2.40;0.47;;;;;;;4.08;82.02;94624.47;5110539;28;20059;-75
2021/12/02 04:46:31;;;;;;;0.98;0.57;;;;;;;4.08;81.71;94634.47;5111527;28;20052;-76
2021/12/02 04:48:58;;;;;;;1.27;0.50;;;;;;;4.08;82.01;94629.84;5111679;28;20052;-76
2021/12/02 04:51:26;;;;;;;1.10;0.50;;;;;;;4.08;81.52;94627.16;5111221;28;20100;-76
2021/12/02 04:53:53;;;;;;;1.35;0.50;;;;;;;4.06;81.18;94631.28;5111531;28;20047;-76
2021/12/02 04:56:19;;;;;;;2.88;0.60;;;;;;;4.03;81.14;94626.53;5110766;28;20043;-76
2021/12/02 04:58:46;;;;;;;0.95;0.40;;;;;;;4.06;81.09;94625.88;5111480;28;20055;-77
2021/12/02 05:01:13;;;;;;;2.15;0.43;;;;;;;4.10;80.94;94629.53;5110868;28;20044;-76
2021/12/02 05:03:40;;;;;;;3.30;0.88;;;;;;;4.12;80.60;94624.59;5111332;28;20490;-76
2021/12/02 05:06:07;;;;;;;1.98;0.57;;;;;;;4.13;80.74;94627.00;5110655;28;20071;-76
2021/12/02 05:08:35;;;;;;;3.88;0.55;;;;;;;4.14;80.66;94623.19;5111282;28;20058;-76
2021/12/02 05:11:02;;;;;;;1.08;0.60;;;;;;;4.16;80.98;94620.16;5110792;28;20050;-75
2021/12/02 05:13:28;;;;;;;4.40;0.93;;;;;;;4.20;80.83;94631.91;5110584;28;20457;-76
2021/12/02 05:15:55;;;;;;;0.63;0.35;;;;;;;4.22;80.90;94632.34;5110963;28;20047;-77
2021/12/02 05:18:21;;;;;;;0.65;0.40;;;;;;;4.21;80.81;94630.00;5110035;28;20044;-77
2021/12/02 05:20:48;;;;;;;4.13;0.55;;;;;;;4.18;81.36;94632.22;5111048;28;20051;-76
2021/12/02 05:23:15;;;;;;;1.50;0.77;;;;;;;4.13;81.93;94637.00;5110205;28;20646;-76
2021/12/02 05:25:44;;;;;;;0.60;0.40;;;;;;;4.05;82.92;94629.69;5111056;28;20069;-76
2021/12/02 05:28:11;;;;;;;2.33;0.50;;;;;;;4.00;83.43;94629.84;5110028;28;20051;-77
2021/12/02 05:30:38;;;;;;;4.50;0.70;;;;;;;3.92;84.23;94634.94;5110682;28;20048;-77
2021/12/02 05:33:04;;;;;;;3.20;0.52;;;;;;;3.86;85.29;94638.91;5110376;28;20395;-76
2021/12/02 05:35:31;;;;;;;1.83;0.57;;;;;;;3.80;85.39;94633.97;5110461;28;20047;-77
2021/12/02 05:37:57;;;;;;;1.30;0.60;;;;;;;3.71;85.79;94635.88;5110654;28;20051;-77
2021/12/02 05:40:23;;;;;;;3.55;0.60;;;;;;;3.65;86.35;94627.16;5109856;28;20051;-76
2021/12/02 05:42:51;;;;;;;4.70;0.73;;;;;;;3.61;86.54;94627.00;5108555;28;20043;-77
2021/12/02 05:45:18;;;;;;;1.70;0.70;;;;;;;3.61;86.53;94626.22;5110111;28;20426;-76
2021/12/02 05:47:44;;;;;;;1.55;0.60;;;;;;;3.61;86.88;94621.63;5110264;28;20043;-76
2021/12/02 05:50:11;;;;;;;3.33;1.33;;;;;;;3.63;87.10;94621.31;5109593;28;20044;-76
2021/12/02 05:52:37;;;;;;;3.53;0.95;;;;;;;3.69;87.16;94633.50;5110171;28;20729;-76
2021/12/02 05:55:04;;;;;;;1.55;0.65;;;;;;;3.71;86.75;94623.22;5109988;28;20486;-76
2021/12/02 05:57:31;;;;;;;2.15;0.60;;;;;;;3.74;86.97;94630.66;5110049;28;20054;-76
2021/12/02 05:59:59;;;;;;;1.02;0.63;;;;;;;3.74;86.72;94633.34;5110449;28;20055;-76
2021/12/02 06:02:26;;;;;;;1.27;0.68;;;;;;;3.77;86.99;94623.84;5109631;28;20043;-76
2021/12/02 06:04:53;;;;;;;2.08;0.63;;;;;;;3.80;86.99;94628.59;5109956;28;20138;-77
2021/12/02 06:07:20;;;;;;;2.30;0.50;;;;;;;3.85;86.52;94620.34;5109362;28;20051;-76
2021/12/02 06:09:48;;;;;;;0.82;0.43;;;;;;;3.87;86.70;94626.22;5110463;28;20070;-76
2021/12/02 06:12:14;;;;;;;2.05;0.40;;;;;;;3.91;86.48;94638.75;5109741;28;20510;-76
2021/12/02 06:14:41;;;;;;;1.58;0.60;;;;;;;3.97;86.27;94627.78;5109740;28;20055;-77
2021/12/02 06:17:09;;;;;;;2.05;0.60;;;;;;;3.97;86.24;94627.78;5108951;28;20046;-76
2021/12/02 06:19:36;;;;;;;2.70;0.73;;;;;;;3.98;86.02;94634.78;5109891;28;20043;-76
2021/12/02 06:22:03;;;;;;;1.98;0.70;;;;;;;3.99;86.19;94631.75;5109301;28;20070;-75
2021/12/02 06:24:32;;;;;;;2.15;0.65;;;;;;;4.02;86.14;94630.31;5109834;28;20055;-76
2021/12/02 06:26:59;;;;;;;2.15;0.55;;;;;;;4.05;85.97;94621.63;5109663;28;20052;-76
2021/12/02 06:29:25;;;;;;;0.90;0.65;;;;;;;4.08;85.72;94629.06;5108975;28;20044;-76
2021/12/02 06:31:52;;;;;;;1.98;0.70;;;;;;;4.07;85.90;94625.59;5109447;28;20044;-76
2021/12/02 06:34:20;;;;;;;0.88;0.68;;;;;;;4.09;85.95;94625.25;5109161;28;20054;-77
2021/12/02 06:36:46;;;;;;;3.08;0.70;;;;;;;4.11;86.19;94620.34;5109646;28;20054;-77
2021/12/02 06:39:13;;;;;;;2.25;1.08;;;;;;;4.14;86.04;94627.78;5108686;28;20059;-77
2021/12/02 06:41:39;;;;;;;1.48;0.93;;;;;;;4.16;85.90;94625.56;5109158;28;20051;-74
2021/12/02 06:44:06;;;;;;;3.33;0.80;;;;;;;4.18;85.96;94634.91;5107750;28;20441;-74
2021/12/02 06:46:33;;;;;;;3.63;1.13;;;;;;;4.21;85.92;94636.16;5109234;28;20047;-74
2021/12/02 06:48:59;;;;;;;2.50;0.90;;;;;;;4.32;86.14;94634.72;5109578;28;20055;-75
2021/12/02 06:51:28;;;;;;;1.33;1.00;;;;;;;4.38;86.13;94649.59;5108449;28;20047;-76
2021/12/02 06:53:54;;;;;;;3.47;1.42;;;;;;;4.28;85.40;94649.97;5108779;28;20052;-75
2021/12/02 06:56:21;;;;;;;2.75;1.00;;;;;;;3.69;83.48;94648.84;5108532;28;20055;-75
2021/12/02 06:58:47;;;;;;;6.03;3.38;;;;;;;3.18;84.90;94651.13;5108861;28;20048;-75
2021/12/02 07:01:15;;;;;;;2.92;1.08;;;;;;;2.96;87.04;94654.72;5108861;28;20047;-76
2021/12/02 07:03:42;;;;;;;2.05;0.90;;;;;;;2.92;88.61;94650.25;5108982;28;20043;-76
2021/12/02 07:06:09;;;;;;;3.33;0.80;;;;;;;2.89;89.10;94654.38;5108206;28;20051;-79
2021/12/02 07:08:37;;;;;;;2.35;0.80;;;;;;;2.82;89.40;94662.91;5108855;28;20062;-79
2021/12/02 07:11:06;;;;;;;0.88;0.57;;;;;;;2.77;89.65;94657.66;5108272;28;20048;-79
2021/12/02 07:13:33;;;;;;;1.40;0.60;;;;;;;2.77;90.01;94656.88;5107769;28;20688;-77
2021/12/02 07:16:00;;;;;;;3.88;0.95;;;;;;;2.77;90.54;94646.91;5108652;28;20067;-79
2021/12/02 07:18:26;;;;;;;0.80;0.68;;;;;;;2.77;90.64;94646.91;5111924;27;20138;-79
2021/12/02 07:20:53;;;;;;;1.77;0.63;;;;;;;2.78;90.91;94643.09;5113431;27;20058;-79
2021/12/02 07:23:22;;;;;;;1.60;0.60;;;;;;;2.78;90.70;94643.09;5108049;28;20059;-78
2021/12/02 07:25:50;;;;;;;0.82;0.52;;;;;;;2.77;90.78;94635.38;5108612;28;20051;-78
2021/12/02 07:28:18;;;;;;;3.05;0.65;;;;;;;2.78;90.82;94637.72;5107707;28;20054;-77
2021/12/02 07:30:45;;;;;;;1.20;0.60;;;;;;;2.78;90.78;94640.41;5108351;28;20094;-78
2021/12/02 07:33:14;;;;;;;1.60;0.80;;;;;;;2.76;90.85;94645.28;5108314;28;20130;-78
2021/12/02 07:35:41;;;;;;;2.08;0.98;;;;;;;2.80;90.74;94651.66;5108051;28;20044;-78
2021/12/02 07:38:07;;;;;;;2.05;1.20;;;;;;;2.84;90.88;94655.31;5107384;28;20430;-75
2021/12/02 07:40:35;;;;;;;1.70;0.98;;;;;;;2.91;91.06;94660.22;5107466;28;20043;-75
2021/12/02 07:43:04;;;;;;;1.83;0.98;;;;;;;2.97;90.77;94655.50;5106903;28;20203;-73
2021/12/02 07:45:35;;;;;;;4.03;1.42;;;;;;;3.05;91.21;94660.91;5108046;28;20558;-75
2021/12/02 07:48:03;;;;;;;3.50;1.90;;;;;;;3.15;91.06;94654.47;5107320;28;20467;-73
2021/12/02 07:50:30;;;;;;;3.42;1.70;;;;;;;3.27;91.34;94660.03;5108141;28;20083;-74
2021/12/02 07:53:00;;;;;;;6.72;2.13;;;;;;;3.39;90.84;94660.22;5108221;28;20053;-74
2021/12/02 07:55:29;;;;;;;4.18;2.10;;;;;;;3.45;89.97;94660.09;5119183;27;20039;-74
2021/12/02 07:57:55;;;;;;;5.43;2.30;;;;;;;3.48;89.43;94659.44;5111943;27;20051;-74
2021/12/02 08:00:25;;;;;;;5.03;2.10;;;;;;;3.61;89.35;94658.53;5107675;28;20058;-75
2021/12/02 08:02:53;;;;;;;4.18;1.98;;;;;;;3.69;88.82;94660.41;5108014;28;20059;-74
2021/12/02 08:05:23;;;;;;;3.45;1.70;;;;;;;3.78;88.50;94663.13;5106905;28;20519;-75
2021/12/02 08:07:50;;;;;;;5.53;1.73;;;;;;;3.83;86.33;94671.84;5108169;28;20051;-75
2021/12/02 08:10:17;;;;;;;5.45;1.60;;;;;;;3.91;86.85;94670.25;5107375;28;20533;-75
2021/12/02 08:12:47;;;;;;;4.13;1.83;;;;;;;3.99;86.74;94665.97;5106852;28;20039;-74
2021/12/02 08:15:16;;;;;;;3.60;1.70;;;;;;;4.10;86.76;94669.94;5107414;28;20048;-74
2021/12/02 08:17:44;;;;;;;22.40;16.15;;;;;;;4.22;86.32;94667.38;5107390;28;20126;-74
2021/12/02 08:20:11;;;;;;;3.30;2.10;;;;;;;4.33;85.49;94668.66;5106980;28;20052;-75
2021/12/02 08:22:38;;;;;;;4.13;1.90;;;;;;;4.44;85.22;94675.31;5107791;28;20047;-74
2021/12/02 08:25:05;;;;;;;2.60;1.10;;;;;;;4.48;83.41;94669.25;5107693;28;20078;-74
2021/12/02 08:27:32;;;;;;;4.15;1.20;;;;;;;4.53;83.64;94674.47;5107364;28;20808;-74
2021/12/02 08:30:01;;;;;;;2.78;1.20;;;;;;;4.51;82.43;94672.09;5107800;28;20043;-72
2021/12/02 08:32:28;;;;;;;2.85;1.30;;;;;;;4.52;82.26;94673.69;5127332;28;20047;-73
2021/12/02 08:34:58;;;;;;;1.48;1.10;;;;;;;4.52;81.61;94676.38;5127589;28;20039;-74
2021/12/02 08:37:26;;;;;;;2.70;1.40;;;;;;;4.51;81.38;94671.31;5127400;28;20047;-75
2021/12/02 08:39:54;;;;;;;3.63;1.30;;;;;;;4.48;80.80;94674.66;5127428;28;20077;-75
2021/12/02 08:42:21;;;;;;;2.85;1.20;;;;;;;4.45;80.10;94676.09;5126927;28;20437;-74
2021/12/02 08:44:50;;;;;;;2.13;1.00;;;;;;;4.44;79.86;94669.91;5127116;28;20047;-74
2021/12/02 08:47:18;;;;;;;2.67;1.27;;;;;;;4.40;79.42;94662.78;5127175;28;20051;-75
2021/12/02 08:49:45;;;;;;;2.42;0.90;;;;;;;4.38;79.26;94676.56;5126868;28;20043;-74
2021/12/02 08:52:13;;;;;;;5.15;1.10;;;;;;;4.34;79.82;94670.25;5127730;28;20129;-73
2021/12/02 08:54:39;;;;;;;2.65;0.93;;;;;;;4.32;79.74;94677.84;5126786;28;20047;-74
2021/12/02 08:57:06;;;;;;;2.88;1.08;;;;;;;4.29;79.44;94673.09;5127486;28;20055;-75
2021/12/02 08:59:33;;;;;;;2.17;1.15;;;;;;;4.27;79.92;94674.50;5126705;28;20051;-74
2021/12/02 09:01:59;;;;;;;3.35;1.20;;;;;;;4.26;80.26;94675.63;5128485;28;20050;-74
2021/12/02 09:04:25;;;;;;;3.00;1.00;;;;;;;4.25;79.85;94668.66;5127503;28;20046;-74
2021/12/02 09:06:52;;;;;;;2.33;1.00;;;;;;;4.26;79.99;94667.53;5127092;28;20051;-74
2021/12/02 09:09:25;;;;;;;5.93;1.17;;;;;;;4.31;79.55;94670.88;5126863;28;20051;-74
2021/12/02 09:11:51;;;;;;;3.80;1.00;;;;;;;4.42;79.65;94666.72;5126948;28;20798;-76
2021/12/02 09:14:18;;;;;;;4.03;0.85;;;;;;;4.52;79.85;94670.19;5125680;28;20422;-74
2021/12/02 09:16:44;;;;;;;5.15;1.30;;;;;;;4.58;78.41;94655.44;5127527;27;20051;-75
2021/12/02 09:19:11;;;;;;;2.30;1.00;;;;;;;4.63;78.54;94671.44;5130921;27;20047;-74
2021/12/02 09:21:37;;;;;;;2.47;1.00;;;;;;;4.73;78.42;94673.78;5130357;27;20047;-74
2021/12/02 09:24:04;;;;;;;3.50;1.67;;;;;;;4.90;77.28;94659.47;5130981;27;20051;-74
2021/12/02 09:26:32;;;;;;;3.58;1.10;;;;;;;5.06;76.87;94660.50;5130175;27;20050;-74
2021/12/02 09:28:59;;;;;;;2.53;1.00;;;;;;;5.16;76.79;94667.44;5130733;27;20062;-74
2021/12/02 09:31:26;;;;;;;2.08;0.90;;;;;;;5.24;76.35;94669.34;5130556;27;20043;-74
2021/12/02 09:33:53;;;;;;;2.58;0.88;;;;;;;5.30;76.37;94659.94;5130576;27;20047;-74
2021/12/02 09:36:20;;;;;;;3.95;1.00;;;;;;;5.32;76.43;94654.97;5130346;27;20047;-73
2021/12/02 09:38:47;;;;;;;2.45;0.90;;;;;;;5.32;76.25;94660.38;5129746;27;20084;-74
2021/12/02 09:41:14;;;;;;;2.22;0.80;;;;;;;5.32;76.19;94670.38;5130714;27;20634;-74
2021/12/02 09:43:42;;;;;;;1.83;0.80;;;;;;;5.29;76.10;94666.44;5129284;27;20054;-75
2021/12/02 09:46:09;;;;;;;1.75;0.68;;;;;;;5.27;76.18;94663.25;5130556;27;20054;-73
2021/12/02 09:48:36;;;;;;;1.55;0.65;;;;;;;5.23;76.28;94662.34;5129890;27;20058;-75
2021/12/02 09:51:08;;;;;;;2.85;0.80;;;;;;;5.23;76.46;94663.13;5130122;27;20047;-74
2021/12/02 09:53:38;;;;;;;1.48;0.73;;;;;;;5.28;76.86;94654.06;5130115;27;20582;-74
2021/12/02 09:56:13;;;;;;;1.83;0.77;;;;;;;5.27;76.46;94641.66;5129653;27;20046;-73
2021/12/02 09:58:41;;;;;;;3.03;0.82;;;;;;;5.41;76.24;94650.34;5130455;27;20419;-74
2021/12/02 10:01:10;;;;;;;2.15;0.95;;;;;;;5.58;75.34;94654.03;5129865;27;20047;-74
2021/12/02 10:03:38;;;;;;;1.95;0.80;;;;;;;5.78;74.89;94645.19;5130574;27;20055;-73
2021/12/02 10:06:08;;;;;;;4.45;0.80;;;;;;;5.93;72.27;94641.13;5129055;27;20395;-75
2021/12/02 10:08:44;;;;;;;4.30;1.20;;;;;;;5.95;72.79;94639.69;5130471;27;20078;-74
2021/12/02 10:11:14;;;;;;;1.65;0.73;;;;;;;5.98;72.58;94638.22;5129420;27;20071;-74
2021/12/02 10:13:46;;;;;;;4.10;0.98;;;;;;;5.94;74.05;94638.09;5129316;27;20129;-74
2021/12/02 10:16:20;;;;;;;2.65;0.82;;;;;;;5.86;74.61;94635.44;5129217;27;20772;-73
2021/12/02 10:18:54;;;;;;;2.22;0.90;;;;;;;5.74;73.40;94633.44;5129079;27;20049;-74
2021/12/02 10:21:26;;;;;;;2.78;0.90;;;;;;;5.69;73.60;94636.34;5129785;27;20051;-74
2021/12/02 10:23:54;;;;;;;2.97;0.80;;;;;;;5.63;73.36;94626.84;5129006;27;20506;-74
2021/12/02 10:26:22;;;;;;;1.92;0.80;;;;;;;5.66;74.23;94627.00;5129745;27;20047;-75
2021/12/02 10:28:52;;;;;;;3.55;0.85;;;;;;;5.65;72.57;94627.34;5128509;27;20047;-73
2021/12/02 10:31:24;;;;;;;2.53;0.60;;;;;;;5.71;72.64;94631.41;5129331;27;20138;-74
2021/12/02 10:33:56;;;;;;;2.23;0.90;;;;;;;5.84;73.06;94627.66;5129618;27;20043;-75
2021/12/02 10:36:30;;;;;;;2.35;0.70;;;;;;;5.99;72.93;94618.97;5128656;27;20100;-74
2021/12/02 10:39:00;;;;;;;1.25;0.73;;;;;;;6.19;72.87;94622.00;5129565;27;20066;-74
2021/12/02 10:41:29;;;;;;;1.15;0.50;;;;;;;6.23;69.52;94618.31;5128485;27;20058;-74
2021/12/02 10:44:10;;;;;;;3.13;0.50;;;;;;;6.23;70.54;94615.59;5129104;27;20070;-74
2021/12/02 10:46:39;;;;;;;3.25;0.90;;;;;;;6.21;71.02;94608.94;5128383;27;20039;-74
2021/12/02 10:49:13;;;;;;;2.47;0.68;;;;;;;6.11;70.76;94614.75;5128784;27;20039;-73
2021/12/02 10:51:43;;;;;;;2.30;0.50;;;;;;;6.12;70.73;94609.03;5129157;27;20051;-73
2021/12/02 10:54:14;;;;;;;2.05;0.52;;;;;;;6.00;70.49;94615.19;5128629;27;20043;-73
2021/12/02 10:56:43;;;;;;;0.73;0.57;;;;;;;5.82;71.43;94608.28;5129093;27;20051;-74
2021/12/02 10:59:32;;;;;;;2.10;0.65;;;;;;;5.54;75.65;94610.72;5127700;27;20046;-74
2021/12/02 11:02:01;;;;;;;2.08;0.75;;;;;;;5.35;76.04;94608.47;5129774;27;20049;-75
2021/12/02 11:04:34;;;;;;;1.50;0.60;;;;;;;5.24;75.61;94596.47;5128426;27;20047;-74
2021/12/02 11:07:02;;;;;;;2.08;0.70;;;;;;;5.14;75.71;94594.16;5128896;27;20055;-74
2021/12/02 11:09:30;;;;;;;1.83;0.60;;;;;;;5.35;75.08;94588.78;5128862;27;20047;-74
2021/12/02 11:12:18;;;;;;;3.10;0.70;;;;;;;5.67;77.13;94596.16;5128703;27;20043;-74
2021/12/02 11:14:58;;;;;;;0.63;0.50;;;;;;;5.78;75.59;94585.75;5128513;27;20051;-74
2021/12/02 11:17:29;;;;;;;2.05;0.50;;;;;;;6.03;74.11;94591.31;5127129;27;20043;-74
2021/12/02 11:19:56;;;;;;;3.17;0.80;;;;;;;6.12;71.79;94582.00;5128966;27;20664;-74
2021/12/02 11:22:23;;;;;;;1.25;0.95;;;;;;;6.23;72.02;94585.88;5127357;27;20043;-74
2021/12/02 11:24:51;;;;;;;3.05;0.90;;;;;;;6.21;70.63;94581.91;5129031;27;20048;-74
2021/12/02 11:27:20;;;;;;;2.22;0.70;;;;;;;6.32;73.03;94585.78;5127721;27;20055;-74
2021/12/02 11:30:05;;;;;;;1.63;0.60;;;;;;;6.34;70.05;94588.94;5128245;27;20054;-75
2021/12/02 11:32:46;;;;;;;3.10;0.65;;;;;;;6.37;70.19;94582.88;5128836;27;20708;-75
2021/12/02 11:35:19;;;;;;;2.30;0.73;;;;;;;6.54;71.61;94584.59;5127492;27;20062;-74
2021/12/02 11:37:48;;;;;;;3.15;1.05;;;;;;;6.75;70.56;94576.41;5128597;27;20054;-73
2021/12/02 11:40:18;;;;;;;3.95;0.93;;;;;;;6.85;71.97;94567.84;5126503;27;20043;-75
2021/12/02 11:42:47;;;;;;;4.60;0.60;;;;;;;6.87;69.01;94571.00;5127643;27;20050;-75
2021/12/02 11:45:17;;;;;;;1.75;0.60;;;;;;;6.75;67.60;94560.97;5127917;27;20051;-74
2021/12/02 11:47:44;;;;;;;2.60;0.90;;;;;;;6.71;67.91;94561.97;5127571;27;20043;-74
2021/12/02 11:50:13;;;;;;;2.05;0.80;;;;;;;6.63;67.88;94554.72;5127855;27;20047;-74
2021/12/02 11:52:41;;;;;;;3.38;0.80;;;;;;;6.49;67.44;94555.06;5127595;27;20822;-74